createdAt,value
2018-06-14T00:00:37.936Z,14.81
2018-06-14T00:03:05.510Z,14.78
2018-06-14T00:05:33.095Z,14.72
2018-06-14T00:08:01.796Z,14.68
2018-06-14T00:10:29.374Z,14.66
2018-06-14T00:12:57.008Z,14.63
2018-06-14T00:15:24.608Z,14.62
2018-06-14T00:17:52.467Z,14.58
2018-06-14T00:20:20.047Z,14.54
2018-06-14T00:22:47.638Z,14.51
2018-06-14T00:25:15.222Z,14.50
2018-06-14T00:27:44.337Z,14.46
2018-06-14T00:30:11.889Z,14.43
2018-06-14T00:32:39.451Z,14.41
2018-06-14T00:35:07.046Z,14.36
2018-06-14T00:37:34.892Z,14.30
2018-06-14T00:40:02.480Z,14.28
2018-06-14T00:42:30.068Z,14.25
2018-06-14T00:44:57.634Z,14.23
2018-06-14T00:47:26.087Z,14.21
2018-06-14T00:49:53.652Z,14.18
2018-06-14T00:52:21.210Z,14.15
2018-06-14T00:54:48.774Z,14.12
2018-06-14T00:57:17.367Z,14.09
2018-06-14T00:59:44.950Z,14.07
2018-06-14T01:02:13.169Z,14.03
2018-06-14T01:04:40.749Z,13.97
2018-06-14T01:07:09.199Z,13.94
2018-06-14T01:09:37.361Z,13.92
2018-06-14T01:12:04.964Z,13.90
2018-06-14T01:14:34.163Z,13.91
2018-06-14T01:17:02.071Z,13.91
2018-06-14T01:19:29.661Z,13.89
2018-06-14T01:21:57.214Z,13.89
2018-06-14T01:24:24.779Z,13.87
2018-06-14T01:26:53.553Z,13.87
2018-06-14T01:29:21.118Z,13.85
2018-06-14T01:31:48.692Z,13.84
2018-06-14T01:34:16.883Z,13.81
2018-06-14T01:36:44.727Z,13.79
2018-06-14T01:39:12.318Z,13.81
2018-06-14T01:41:39.900Z,13.82
2018-06-14T01:44:07.462Z,13.84
2018-06-14T01:46:35.716Z,13.83
2018-06-14T01:49:03.324Z,13.82
2018-06-14T01:51:30.946Z,13.78
2018-06-14T01:53:58.530Z,13.78
2018-06-14T01:56:26.502Z,13.75
2018-06-14T01:58:54.078Z,13.74
2018-06-14T02:01:21.678Z,13.72
2018-06-14T02:03:49.410Z,13.70
2018-06-14T02:06:17.304Z,13.65
2018-06-14T02:08:44.878Z,13.62
2018-06-14T02:11:13.405Z,13.60
2018-06-14T02:13:41.247Z,13.57
2018-06-14T02:16:10.130Z,13.56
2018-06-14T02:18:41.549Z,13.53
2018-06-14T02:21:10.036Z,13.50
2018-06-14T02:23:37.957Z,13.47
2018-06-14T02:26:05.656Z,13.46
2018-06-14T02:28:33.240Z,13.44
2018-06-14T02:31:03.822Z,13.43
2018-06-14T02:33:31.687Z,13.44
2018-06-14T02:35:59.335Z,13.41
2018-06-14T02:38:26.913Z,13.39
2018-06-14T02:40:55.791Z,13.36
2018-06-14T02:43:23.666Z,13.34
2018-06-14T02:45:51.627Z,13.31
2018-06-14T02:48:19.187Z,13.27
2018-06-14T02:50:47.050Z,13.25
2018-06-14T02:53:14.719Z,13.22
2018-06-14T02:55:42.302Z,13.20
2018-06-14T02:58:17.743Z,13.18
2018-06-14T03:00:45.638Z,13.16
2018-06-14T03:03:13.219Z,13.15
2018-06-14T03:05:41.158Z,13.16
2018-06-14T03:08:08.745Z,13.13
2018-06-14T03:10:36.595Z,13.11
2018-06-14T03:13:05.526Z,13.07
2018-06-14T03:15:33.867Z,13.06
2018-06-14T03:18:01.803Z,13.06
2018-06-14T03:20:32.424Z,13.06
2018-06-14T03:23:00.113Z,13.07
2018-06-14T03:25:27.974Z,13.09
2018-06-14T03:27:55.553Z,13.08
2018-06-14T03:30:23.202Z,13.06
2018-06-14T03:32:51.706Z,13.06
2018-06-14T03:35:20.084Z,13.04
2018-06-14T03:37:47.686Z,13.03
2018-06-14T03:40:15.299Z,13.04
2018-06-14T03:42:44.594Z,13.03
2018-06-14T03:45:17.047Z,13.03
2018-06-14T03:47:44.627Z,13.04
2018-06-14T03:50:12.199Z,13.04
2018-06-14T03:52:39.755Z,13.05
2018-06-14T03:55:07.620Z,13.06
2018-06-14T03:57:35.187Z,13.07
2018-06-14T04:00:02.794Z,13.06
2018-06-14T04:02:30.399Z,13.11
2018-06-14T04:04:59.305Z,13.13
2018-06-14T04:07:27.588Z,13.17
2018-06-14T04:09:57.108Z,13.20
2018-06-14T04:12:24.714Z,13.23
2018-06-14T04:14:52.551Z,13.26
2018-06-14T04:17:20.146Z,13.28
2018-06-14T04:19:47.701Z,13.32
2018-06-14T04:22:15.265Z,13.34
2018-06-14T04:24:43.274Z,13.34
2018-06-14T04:27:11.133Z,13.36
2018-06-14T04:29:38.706Z,13.40
2018-06-14T04:32:06.463Z,13.44
2018-06-14T04:34:34.331Z,13.47
2018-06-14T04:37:01.919Z,13.51
2018-06-14T04:39:29.926Z,13.55
2018-06-14T04:41:57.973Z,13.61
2018-06-14T04:44:25.568Z,13.63
2018-06-14T04:46:53.318Z,13.66
2018-06-14T04:49:21.165Z,13.72
2018-06-14T04:51:48.718Z,13.77
2018-06-14T04:54:16.385Z,13.81
2018-06-14T04:56:44.232Z,13.86
2018-06-14T04:59:12.103Z,13.90
2018-06-14T05:01:40.414Z,13.96
2018-06-14T05:04:08.249Z,14.03
2018-06-14T05:06:35.823Z,14.07
2018-06-14T05:09:04.151Z,14.13
2018-06-14T05:11:32.027Z,14.16
2018-06-14T05:14:00.267Z,14.22
2018-06-14T05:16:28.605Z,14.28
2018-06-14T05:18:56.503Z,14.36
2018-06-14T05:21:24.166Z,14.42
2018-06-14T05:23:51.770Z,14.50
2018-06-14T05:26:19.646Z,14.55
2018-06-14T05:28:48.258Z,14.61
2018-06-14T05:31:15.834Z,14.66
2018-06-14T05:33:43.786Z,14.73
2018-06-14T05:36:11.370Z,14.81
2018-06-14T05:38:39.567Z,14.87
2018-06-14T05:41:07.406Z,14.94
2018-06-14T05:43:36.608Z,15.02
2018-06-14T05:46:04.966Z,15.08
2018-06-14T05:48:33.517Z,15.13
2018-06-14T05:51:01.082Z,15.18
2018-06-14T05:53:28.640Z,15.23
2018-06-14T05:55:56.519Z,15.27
2018-06-14T05:58:24.086Z,15.33
2018-06-14T06:00:51.687Z,15.39
2018-06-14T06:03:19.581Z,15.46
2018-06-14T06:05:47.198Z,15.53
2018-06-14T06:08:14.791Z,15.59
2018-06-14T06:10:42.621Z,15.67
2018-06-14T06:13:10.211Z,15.74
2018-06-14T06:15:37.794Z,15.82
2018-06-14T06:18:05.690Z,15.87
2018-06-14T06:20:33.281Z,15.94
2018-06-14T06:23:00.850Z,16.01
2018-06-14T06:25:29.334Z,16.07
2018-06-14T06:27:57.061Z,16.14
2018-06-14T06:30:24.652Z,16.22
2018-06-14T06:32:52.504Z,16.27
2018-06-14T06:35:20.307Z,16.34
2018-06-14T06:37:47.898Z,16.41
2018-06-14T06:40:16.441Z,16.46
2018-06-14T06:42:44.034Z,16.51
2018-06-14T06:45:11.621Z,16.56
2018-06-14T06:47:39.471Z,16.63
2018-06-14T06:50:07.767Z,16.68
2018-06-14T06:52:35.346Z,16.75
2018-06-14T06:55:03.181Z,16.82
2018-06-14T06:57:30.758Z,16.87
2018-06-14T06:59:58.326Z,16.94
2018-06-14T07:02:26.154Z,16.99
2018-06-14T07:04:53.721Z,17.05
2018-06-14T07:07:21.274Z,17.12
2018-06-14T07:09:49.452Z,17.18
2018-06-14T07:12:17.178Z,17.23
2018-06-14T07:14:44.766Z,17.28
2018-06-14T07:17:12.614Z,17.34
2018-06-14T07:19:41.170Z,17.41
2018-06-14T07:22:08.774Z,17.46
2018-06-14T07:24:36.635Z,17.52
2018-06-14T07:27:04.208Z,17.59
2018-06-14T07:29:31.822Z,17.66
2018-06-14T07:31:59.728Z,17.71
2018-06-14T07:34:27.314Z,17.73
2018-06-14T07:36:56.001Z,17.77
2018-06-14T07:39:25.245Z,17.79
2018-06-14T07:44:27.623Z,17.91
2018-06-14T07:46:55.201Z,17.97
2018-06-14T07:49:22.754Z,18.03
2018-06-14T07:51:51.441Z,18.08
2018-06-14T07:54:19.121Z,18.14
2018-06-14T07:56:46.966Z,18.20
2018-06-14T07:59:14.534Z,18.27
2018-06-14T08:01:42.134Z,18.33
2018-06-14T08:04:09.975Z,18.38
2018-06-14T08:06:38.494Z,18.43
2018-06-14T08:09:06.215Z,18.47
2018-06-14T08:11:34.330Z,18.50
2018-06-14T08:14:03.249Z,18.55
2018-06-14T08:16:30.852Z,18.60
2018-06-14T08:18:59.414Z,18.64
2018-06-14T08:21:26.986Z,18.66
2018-06-14T08:23:54.581Z,18.68
2018-06-14T08:26:25.393Z,18.72
2018-06-14T08:28:53.006Z,18.77
2018-06-14T08:31:22.311Z,18.84
2018-06-14T08:33:51.310Z,18.89
2018-06-14T08:36:18.882Z,18.95
2018-06-14T08:38:46.662Z,18.99
2018-06-14T08:41:14.681Z,19.02
2018-06-14T08:43:43.329Z,19.06
2018-06-14T08:46:10.891Z,19.09
2018-06-14T08:48:38.750Z,19.11
2018-06-14T08:51:06.311Z,19.14
2018-06-14T08:53:33.855Z,19.18
2018-06-14T08:56:02.147Z,19.20
2018-06-14T08:58:29.763Z,19.25
2018-06-14T09:00:57.343Z,19.27
2018-06-14T09:03:26.162Z,19.28
2018-06-14T09:05:53.856Z,19.26
2018-06-14T09:08:21.679Z,19.26
2018-06-14T09:10:49.542Z,19.26
2018-06-14T09:13:17.941Z,19.27
2018-06-14T09:15:45.551Z,19.29
2018-06-14T09:18:13.392Z,19.34
2018-06-14T09:20:42.326Z,19.39
2018-06-14T09:23:09.906Z,19.42
2018-06-14T09:25:38.422Z,19.44
2018-06-14T09:28:06.030Z,19.46
2018-06-14T09:30:33.642Z,19.44
2018-06-14T09:33:01.633Z,19.44
2018-06-14T09:35:29.194Z,19.46
2018-06-14T09:37:56.762Z,19.47
2018-06-14T09:40:24.623Z,19.48
2018-06-14T09:42:52.262Z,19.46
2018-06-14T09:45:19.865Z,19.42
2018-06-14T09:47:48.438Z,19.43
2018-06-14T09:50:16.666Z,19.48
2018-06-14T09:52:44.252Z,19.55
2018-06-14T09:55:12.186Z,19.62
2018-06-14T09:57:39.766Z,19.69
2018-06-14T10:00:07.336Z,19.74
2018-06-14T10:02:36.606Z,19.81
2018-06-14T10:05:04.210Z,19.87
2018-06-14T10:07:31.786Z,19.93
2018-06-14T10:09:59.719Z,20.00
2018-06-14T10:12:28.227Z,20.06
2018-06-14T10:14:55.820Z,20.12
2018-06-14T10:17:23.713Z,20.14
2018-06-14T10:19:51.524Z,20.15
2018-06-14T10:22:19.655Z,20.18
2018-06-14T10:24:49.608Z,20.22
2018-06-14T10:27:18.210Z,20.22
2018-06-14T10:29:48.898Z,20.24
2018-06-14T10:32:17.666Z,20.22
2018-06-14T10:34:45.249Z,20.24
2018-06-14T10:37:12.893Z,20.27
2018-06-14T10:39:42.451Z,20.30
2018-06-14T10:42:10.060Z,20.34
2018-06-14T10:44:38.475Z,20.39
2018-06-14T10:47:07.435Z,20.42
2018-06-14T10:49:35.018Z,20.43
2018-06-14T10:52:03.466Z,20.45
2018-06-14T10:54:33.219Z,20.51
2018-06-14T10:57:01.650Z,20.57
2018-06-14T10:59:29.214Z,20.65
2018-06-14T11:01:57.130Z,20.70
2018-06-14T11:04:24.743Z,20.69
2018-06-14T11:06:53.230Z,20.71
2018-06-14T11:09:23.094Z,20.80
2018-06-14T11:11:51.246Z,20.90
2018-06-14T11:14:19.947Z,20.95
2018-06-14T11:16:48.626Z,21.00
2018-06-14T11:19:18.310Z,21.04
2018-06-14T11:21:47.291Z,21.12
2018-06-14T11:24:17.960Z,21.19
2018-06-14T11:26:49.088Z,21.26
2018-06-14T11:29:16.681Z,21.25
2018-06-14T11:31:47.202Z,21.22
2018-06-14T11:34:17.786Z,21.22
2018-06-14T11:36:45.368Z,21.22
2018-06-14T11:39:13.660Z,21.21
2018-06-14T11:41:41.857Z,21.19
2018-06-14T11:44:11.218Z,21.21
2018-06-14T11:46:39.906Z,21.24
2018-06-14T11:49:07.550Z,21.28
2018-06-14T11:51:36.070Z,21.28
2018-06-14T11:54:03.934Z,21.30
2018-06-14T11:56:32.348Z,21.32
2018-06-14T11:58:59.938Z,21.36
2018-06-14T12:01:30.300Z,21.42
2018-06-14T12:04:01.523Z,21.48
2018-06-14T12:06:33.384Z,21.51
2018-06-14T12:09:01.267Z,21.51
2018-06-14T12:11:29.917Z,21.51
2018-06-14T12:13:57.510Z,21.50
2018-06-14T12:16:25.362Z,21.53
2018-06-14T12:18:53.015Z,21.57
2018-06-14T12:21:21.220Z,21.60
2018-06-14T12:23:49.070Z,21.63
2018-06-14T12:26:16.681Z,21.66
2018-06-14T12:28:44.266Z,21.65
2018-06-14T12:31:12.159Z,21.62
2018-06-14T12:33:39.751Z,21.58
2018-06-14T12:36:07.651Z,21.58
2018-06-14T12:38:35.514Z,21.59
2018-06-14T12:41:03.135Z,21.59
2018-06-14T12:43:30.698Z,21.61
2018-06-14T12:45:58.611Z,21.61
2018-06-14T12:48:26.810Z,21.61
2018-06-14T12:50:54.390Z,21.65
2018-06-14T12:53:21.958Z,21.71
2018-06-14T12:55:49.595Z,21.77
2018-06-14T12:58:17.532Z,21.81
2018-06-14T13:00:47.020Z,21.83
2018-06-14T13:03:14.601Z,21.85
2018-06-14T13:05:43.802Z,21.88
2018-06-14T13:08:14.387Z,21.90
2018-06-14T13:10:42.991Z,21.89
2018-06-14T13:13:12.254Z,21.91
2018-06-14T13:15:40.476Z,21.94
2018-06-14T13:18:09.235Z,21.94
2018-06-14T13:20:38.720Z,21.93
2018-06-14T13:23:06.362Z,21.93
2018-06-14T13:25:34.572Z,21.93
2018-06-14T13:28:02.897Z,21.91
2018-06-14T13:30:30.478Z,21.91
2018-06-14T13:33:00.877Z,21.91
2018-06-14T13:35:29.271Z,21.90
2018-06-14T13:37:58.272Z,21.92
2018-06-14T13:40:26.546Z,21.94
2018-06-14T13:42:55.342Z,21.92
2018-06-14T13:45:22.927Z,21.94
2018-06-14T13:47:50.526Z,21.92
2018-06-14T13:50:19.305Z,21.89
2018-06-14T13:52:46.931Z,21.88
2018-06-14T13:55:14.501Z,21.86
2018-06-14T13:57:42.445Z,21.86
2018-06-14T14:00:10.836Z,21.87
2018-06-14T14:02:38.466Z,21.86
2018-06-14T14:05:06.358Z,21.85
2018-06-14T14:07:35.108Z,21.83
2018-06-14T14:10:02.719Z,21.84
2018-06-14T14:12:31.276Z,21.84
2018-06-14T14:14:58.860Z,21.85
2018-06-14T14:17:27.328Z,21.83
2018-06-14T14:19:55.180Z,21.83
2018-06-14T14:22:22.802Z,21.84
2018-06-14T14:24:51.325Z,21.83
2018-06-14T14:27:19.253Z,21.81
2018-06-14T14:29:47.400Z,21.82
2018-06-14T14:32:14.958Z,21.81
2018-06-14T14:34:43.415Z,21.79
2018-06-14T14:37:12.704Z,21.77
2018-06-14T14:39:41.897Z,21.77
2018-06-14T14:42:12.724Z,21.76
2018-06-14T14:44:41.522Z,21.75
2018-06-14T14:47:09.239Z,21.74
2018-06-14T14:49:37.382Z,21.73
2018-06-14T14:52:05.878Z,21.74
2018-06-14T14:54:36.438Z,21.73
2018-06-14T14:57:07.199Z,21.74
2018-06-14T14:59:35.391Z,21.75
2018-06-14T15:02:04.454Z,21.73
2018-06-14T15:04:32.615Z,21.72
2018-06-14T15:07:04.640Z,21.67
2018-06-14T15:14:58.894Z,21.58
2018-06-14T15:17:30.148Z,21.57
2018-06-14T15:25:17.857Z,21.53
2018-06-14T15:27:48.664Z,21.51
2018-06-14T15:30:16.869Z,21.48
2018-06-14T15:32:51.898Z,21.46
2018-06-14T15:35:20.590Z,21.44
2018-06-14T15:37:49.298Z,21.41
2018-06-14T15:40:18.298Z,21.38
2018-06-14T15:42:51.290Z,21.35
2018-06-14T15:45:18.862Z,21.34
2018-06-14T15:47:46.571Z,21.29
2018-06-14T15:50:14.472Z,21.28
2018-06-14T15:52:42.826Z,21.25
2018-06-14T15:55:10.670Z,21.21
2018-06-14T15:57:38.519Z,21.17
2018-06-14T16:00:06.730Z,21.13
2018-06-14T16:02:35.467Z,21.07
2018-06-14T16:05:03.348Z,21.02
2018-06-14T16:07:30.958Z,20.97
2018-06-14T16:09:59.550Z,20.93
2018-06-14T16:12:29.569Z,20.85
2018-06-14T16:14:57.287Z,20.80
2018-06-14T16:17:25.371Z,20.73
2018-06-14T16:19:56.020Z,20.68
2018-06-14T16:22:24.255Z,20.61
2018-06-14T16:24:52.726Z,20.57
2018-06-14T16:27:21.434Z,20.51
2018-06-14T16:29:50.312Z,20.45
2018-06-14T16:32:20.394Z,20.39
2018-06-14T16:34:53.605Z,20.32
2018-06-14T16:37:21.963Z,20.25
2018-06-14T16:39:49.531Z,20.18
2018-06-14T16:42:19.140Z,20.12
2018-06-14T16:44:47.291Z,20.06
2018-06-14T16:47:14.871Z,20.03
2018-06-14T16:49:43.351Z,20.05
2018-06-14T16:52:11.212Z,20.07
2018-06-14T16:54:39.730Z,20.12
2018-06-14T16:57:07.595Z,20.14
2018-06-14T16:59:35.182Z,20.18
2018-06-14T17:02:02.785Z,20.20
2018-06-14T17:04:30.626Z,20.22
2018-06-14T17:06:58.357Z,20.24
2018-06-14T17:09:27.170Z,20.23
2018-06-14T17:11:56.328Z,20.23
2018-06-14T17:14:24.578Z,20.21
2018-06-14T17:16:52.166Z,20.20
2018-06-14T17:19:20.238Z,20.18
2018-06-14T17:21:47.822Z,20.14
2018-06-14T17:24:16.272Z,20.11
2018-06-14T17:26:44.146Z,20.08
2018-06-14T17:29:11.767Z,20.05
2018-06-14T17:31:40.325Z,20.01
2018-06-14T17:34:10.330Z,19.94
2018-06-14T17:36:38.822Z,19.87
2018-06-14T17:39:06.400Z,19.77
2018-06-14T17:41:36.288Z,19.69
2018-06-14T17:44:03.806Z,19.64
2018-06-14T17:46:31.379Z,19.56
2018-06-14T17:49:01.426Z,19.51
2018-06-14T17:51:32.345Z,19.47
2018-06-14T17:54:01.187Z,19.41
2018-06-14T17:56:31.286Z,19.38
2018-06-14T17:59:00.354Z,19.34
2018-06-14T18:01:32.462Z,19.30
2018-06-14T18:04:01.291Z,19.27
2018-06-14T18:06:29.636Z,19.23
2018-06-14T18:08:58.126Z,19.19
2018-06-14T18:11:27.320Z,19.16
2018-06-14T18:13:55.814Z,19.10
2018-06-14T18:16:24.547Z,19.08
2018-06-14T18:21:25.534Z,19.04
2018-06-14T18:23:54.560Z,19.02
2018-06-14T18:26:29.571Z,19.00
2018-06-14T18:28:58.880Z,18.98
2018-06-14T18:31:26.448Z,18.97
2018-06-14T18:33:58.190Z,18.96
2018-06-14T18:36:25.788Z,18.95
2018-06-14T18:38:54.335Z,18.94
2018-06-14T18:41:24.452Z,18.92
2018-06-14T18:43:53.300Z,18.92
2018-06-14T18:46:22.476Z,18.91
2018-06-14T18:48:50.378Z,18.89
2018-06-14T18:51:18.471Z,18.87
2018-06-14T18:53:48.349Z,18.87
2018-06-14T18:56:16.246Z,18.87
2018-06-14T18:58:45.450Z,18.84
2018-06-14T19:01:13.692Z,18.82
2018-06-14T19:03:41.576Z,18.79
2018-06-14T19:06:09.938Z,18.76
2018-06-14T19:08:38.513Z,18.75
2018-06-14T19:11:12.510Z,18.74
2018-06-14T19:13:40.201Z,18.70
2018-06-14T19:16:08.467Z,18.70
2018-06-14T19:18:36.382Z,18.69
2018-06-14T19:21:05.411Z,18.68
2018-06-14T19:23:33.791Z,18.68
2018-06-14T19:26:01.766Z,18.68
2018-06-14T19:28:29.430Z,18.68
2018-06-14T19:30:56.999Z,18.68
2018-06-14T19:33:24.854Z,18.68
2018-06-14T19:35:52.441Z,18.68
2018-06-14T19:38:21.021Z,18.66
2018-06-14T19:40:53.461Z,18.67
2018-06-14T19:43:24.487Z,18.66
2018-06-14T19:45:58.241Z,18.64
2018-06-14T19:48:26.109Z,18.63
2018-06-14T19:50:53.686Z,18.64
2018-06-14T19:53:26.111Z,18.64
2018-06-14T19:55:54.530Z,18.64
2018-06-14T19:58:25.530Z,18.63
2018-06-14T20:00:59.226Z,18.63
2018-06-14T20:03:29.415Z,18.63
2018-06-14T20:05:58.478Z,18.63
2018-06-14T20:08:26.361Z,18.63
2018-06-14T20:10:55.390Z,18.62
2018-06-14T20:13:24.014Z,18.61
2018-06-14T20:15:51.878Z,18.61
2018-06-14T20:18:19.477Z,18.62
2018-06-14T20:20:49.083Z,18.61
2018-06-14T20:23:17.792Z,18.59
2018-06-14T20:25:48.229Z,18.58
2018-06-14T20:28:16.628Z,18.58
2018-06-14T20:30:45.431Z,18.58
2018-06-14T20:33:15.211Z,18.59
2018-06-14T20:35:44.382Z,18.58
2018-06-14T20:38:13.106Z,18.59
2018-06-14T20:40:43.120Z,18.58
2018-06-14T20:43:11.698Z,18.57
2018-06-14T20:45:40.134Z,18.56
2018-06-14T20:50:44.505Z,18.56
2018-06-14T20:53:17.643Z,18.55
2018-06-14T20:55:49.928Z,18.55
2018-06-14T20:58:18.619Z,18.56
2018-06-14T21:00:46.998Z,18.55
2018-06-14T21:03:16.392Z,18.54
2018-06-14T21:05:45.385Z,18.53
2018-06-14T21:08:13.791Z,18.51
2018-06-14T21:10:42.601Z,18.52
2018-06-14T21:13:13.218Z,18.51
2018-06-14T21:15:40.802Z,18.50
2018-06-14T21:18:12.562Z,18.49
2018-06-14T21:20:43.326Z,18.48
2018-06-14T21:23:13.849Z,18.49
2018-06-14T21:25:42.034Z,18.48
2018-06-14T21:28:09.907Z,18.49
2018-06-14T21:30:38.538Z,18.47
2018-06-14T21:33:10.480Z,18.48
2018-06-14T21:35:42.270Z,18.47
2018-06-14T21:38:11.406Z,18.46
2018-06-14T21:40:40.457Z,18.45
2018-06-14T21:43:09.324Z,18.45
2018-06-14T21:48:20.447Z,18.45
2018-06-14T21:50:51.218Z,18.45
2018-06-14T21:53:22.052Z,18.46
2018-06-14T21:55:54.153Z,18.45
2018-06-14T21:58:24.275Z,18.45
2018-06-14T22:00:51.932Z,18.46
2018-06-14T22:03:24.457Z,18.46
2018-06-14T22:05:54.895Z,18.46
2018-06-14T22:08:24.279Z,18.44
2018-06-14T22:10:53.454Z,18.45
2018-06-14T22:13:21.291Z,18.45
2018-06-14T22:15:49.600Z,18.45
2018-06-14T22:18:17.169Z,18.46
2018-06-14T22:20:45.285Z,18.46
2018-06-14T22:23:13.128Z,18.46
2018-06-14T22:25:40.698Z,18.46
2018-06-14T22:28:08.569Z,18.45
2018-06-14T22:30:37.826Z,18.44
2018-06-14T22:33:06.270Z,18.43
2018-06-14T22:35:36.290Z,18.41
2018-06-14T22:38:03.866Z,18.41
2018-06-14T22:40:34.458Z,18.40
2018-06-14T22:43:02.382Z,18.38
2018-06-14T22:45:31.270Z,18.37
2018-06-14T22:47:59.601Z,18.36
2018-06-14T22:50:27.198Z,18.35
2018-06-14T22:52:56.406Z,18.36
2018-06-14T22:55:25.770Z,18.35
2018-06-14T22:57:54.493Z,18.35
2018-06-14T23:00:22.238Z,18.33
2018-06-14T23:02:52.085Z,18.33
2018-06-14T23:05:19.686Z,18.32
2018-06-14T23:07:47.290Z,18.33
2018-06-14T23:10:18.865Z,18.33
2018-06-14T23:12:49.675Z,18.33
2018-06-14T23:15:17.939Z,18.32
2018-06-14T23:17:46.446Z,18.32
2018-06-14T23:20:14.766Z,18.31
2018-06-14T23:22:43.716Z,18.31
2018-06-14T23:25:11.525Z,18.34
2018-06-14T23:27:40.643Z,18.34
2018-06-14T23:30:08.838Z,18.34
2018-06-14T23:32:36.670Z,18.34
2018-06-14T23:35:04.248Z,18.34
2018-06-14T23:37:31.852Z,18.34
2018-06-14T23:39:59.414Z,18.33
2018-06-14T23:42:28.127Z,18.33
2018-06-14T23:44:57.124Z,18.33
2018-06-14T23:47:24.794Z,18.34
2018-06-14T23:49:54.486Z,18.32
2018-06-14T23:52:22.313Z,18.33
2018-06-14T23:54:50.038Z,18.32
2018-06-14T23:57:18.050Z,18.34
2018-06-14T23:59:45.650Z,18.33
